createdAt,value
2023-03-23T15:58:42.011Z,44.40
2023-03-23T16:01:17.630Z,47.60
2023-03-23T16:03:51.415Z,50.40
2023-03-23T16:06:25.886Z,48.40
2023-03-23T16:08:55.163Z,47.40
2023-03-23T16:11:29.369Z,46.50
2023-03-23T16:13:57.493Z,55.10
2023-03-23T16:16:30.273Z,50.40
2023-03-23T16:18:58.602Z,56.80
2023-03-23T16:21:28.688Z,54.10
2023-03-23T16:23:57.107Z,51.20
2023-03-23T16:26:26.881Z,50.40
2023-03-23T16:29:02.680Z,50.90
2023-03-23T16:31:34.421Z,53.00
2023-03-23T16:34:02.555Z,55.80
2023-03-23T16:36:31.028Z,61.70
2023-03-23T16:38:59.201Z,61.60
2023-03-23T16:41:28.967Z,59.80
2023-03-23T16:43:57.385Z,61.90
2023-03-23T16:46:29.575Z,67.20
2023-03-23T16:48:57.715Z,67.20
2023-03-23T16:51:25.796Z,69.00
2023-03-23T16:53:54.669Z,66.50
2023-03-23T16:56:23.177Z,68.10
2023-03-23T16:58:52.686Z,70.80
2023-03-23T17:01:21.158Z,72.50
2023-03-23T17:03:49.410Z,76.20
2023-03-23T17:06:17.657Z,87.30
2023-03-23T17:08:45.675Z,89.50
2023-03-23T17:11:15.082Z,93.40
2023-03-23T17:13:43.159Z,94.30
2023-03-23T17:16:12.804Z,94.90
2023-03-23T17:18:41.166Z,98.30
2023-03-23T17:21:09.565Z,99.90
2023-03-23T17:23:37.974Z,99.90
2023-03-23T17:26:06.891Z,99.90
2023-03-23T17:28:35.062Z,99.90
2023-03-23T17:31:03.253Z,99.90
2023-03-23T17:33:32.800Z,99.90
2023-03-23T17:36:00.923Z,99.90
2023-03-23T17:38:29.074Z,99.90
2023-03-23T17:41:01.897Z,99.90
2023-03-23T17:43:30.018Z,99.90
2023-03-23T17:45:58.564Z,99.90
2023-03-23T17:48:26.904Z,99.90
2023-03-23T17:50:59.051Z,99.90
2023-03-23T17:53:27.788Z,99.90
2023-03-23T17:55:56.980Z,99.90
2023-03-23T17:58:26.448Z,99.90
2023-03-23T18:00:56.071Z,99.90
2023-03-23T18:03:26.115Z,99.90
2023-03-23T18:06:02.170Z,99.90
2023-03-23T18:08:30.908Z,99.90
2023-03-23T18:11:00.004Z,99.90
2023-03-23T18:13:31.659Z,99.90
2023-03-23T18:16:00.750Z,99.90
2023-03-23T18:18:29.027Z,99.90
2023-03-23T18:20:58.670Z,99.90
2023-03-23T18:23:28.435Z,99.90
2023-03-23T18:25:56.833Z,99.90
2023-03-23T18:28:25.296Z,99.90
2023-03-23T18:30:53.875Z,99.90
2023-03-23T18:33:24.355Z,99.90
2023-03-23T18:35:58.958Z,99.90
2023-03-23T18:38:29.725Z,99.90
2023-03-23T18:41:07.349Z,99.90
2023-03-23T18:43:35.891Z,99.90
2023-03-23T18:46:09.240Z,99.90
2023-03-23T18:48:37.951Z,99.90
2023-03-23T18:51:07.391Z,99.90
2023-03-23T18:53:37.209Z,99.90
2023-03-23T18:56:08.859Z,99.90
2023-03-23T18:58:39.199Z,99.90
2023-03-23T19:01:10.597Z,99.90
2023-03-23T19:03:40.459Z,99.90
2023-03-23T19:06:16.493Z,99.90
2023-03-23T19:08:46.962Z,99.90
2023-03-23T19:11:16.429Z,99.90
2023-03-23T19:13:58.023Z,99.90
2023-03-23T19:16:31.170Z,99.90
2023-03-23T19:18:59.532Z,99.90
2023-03-23T19:21:29.774Z,99.90
2023-03-23T19:24:01.974Z,99.90
2023-03-23T19:26:36.953Z,99.90
2023-03-23T19:31:38.213Z,99.90
2023-03-23T19:34:06.955Z,99.90
2023-03-23T19:36:36.889Z,99.90
2023-03-23T19:39:08.842Z,99.90
2023-03-23T19:41:38.330Z,99.90
2023-03-23T19:44:08.069Z,99.90
2023-03-23T19:46:36.314Z,99.90
2023-03-23T19:49:05.042Z,99.90
2023-03-23T19:51:33.308Z,99.90
2023-03-23T19:54:01.546Z,99.90
2023-03-23T19:56:32.589Z,99.90
2023-03-23T19:59:01.063Z,99.90
2023-03-23T20:01:29.930Z,99.90
2023-03-23T20:04:00.305Z,99.90
2023-03-23T20:06:33.506Z,99.90
2023-03-23T20:09:01.700Z,99.90
2023-03-23T20:11:32.184Z,99.90
2023-03-23T20:14:00.521Z,99.90
2023-03-23T20:16:29.411Z,99.90
2023-03-23T20:19:00.153Z,99.90
2023-03-23T20:21:29.142Z,99.90
2023-03-23T20:23:59.570Z,99.90
2023-03-23T20:26:34.131Z,99.90
2023-03-23T20:29:03.471Z,99.90
2023-03-23T20:31:36.641Z,99.90
2023-03-23T20:34:09.021Z,99.90
2023-03-23T20:36:45.209Z,99.90
2023-03-23T20:39:19.109Z,99.90
2023-03-23T20:41:50.805Z,99.90
2023-03-23T20:44:23.591Z,99.90
2023-03-23T20:46:54.276Z,99.90
2023-03-23T20:49:23.222Z,99.90
2023-03-23T20:51:53.628Z,99.90
2023-03-23T20:54:22.460Z,99.90
2023-03-23T20:56:54.870Z,99.90
2023-03-23T20:59:24.383Z,99.90
2023-03-23T21:01:52.973Z,99.90
2023-03-23T21:04:27.100Z,99.90
2023-03-23T21:06:56.042Z,99.90
2023-03-23T21:09:25.628Z,99.90
2023-03-23T21:11:57.219Z,99.90
2023-03-23T21:14:25.531Z,99.90
2023-03-23T21:16:54.279Z,99.90
2023-03-23T21:19:22.739Z,99.90
2023-03-23T21:21:56.736Z,99.90
2023-03-23T21:24:27.986Z,99.90
2023-03-23T21:27:00.283Z,99.90
2023-03-23T21:29:28.628Z,99.90
2023-03-23T21:34:28.859Z,99.90
2023-03-23T21:37:00.135Z,99.90
2023-03-23T21:39:28.320Z,99.90
2023-03-23T21:41:59.466Z,99.90
2023-03-23T21:44:27.856Z,99.90
2023-03-23T21:46:55.920Z,99.90
2023-03-23T21:49:23.998Z,99.90
2023-03-23T21:51:52.440Z,99.90
2023-03-23T21:54:20.940Z,99.90
2023-03-23T21:56:49.848Z,99.90
2023-03-23T21:59:19.244Z,99.90
2023-03-23T22:01:49.130Z,99.90
2023-03-23T22:04:17.635Z,99.90
2023-03-23T22:06:45.809Z,99.90
2023-03-23T22:09:13.920Z,99.90
2023-03-23T22:11:42.782Z,99.90
2023-03-23T22:14:11.158Z,99.90
2023-03-23T22:16:40.541Z,99.90
2023-03-23T22:19:08.771Z,99.90
2023-03-23T22:21:37.486Z,99.90
2023-03-23T22:24:05.979Z,99.90
2023-03-23T22:26:34.515Z,99.90
2023-03-23T22:29:02.948Z,99.90
2023-03-23T22:31:35.457Z,99.90
2023-03-23T22:34:05.226Z,99.90
2023-03-23T22:36:34.570Z,99.90
2023-03-23T22:39:03.462Z,99.90
2023-03-23T22:41:35.547Z,99.90
2023-03-23T22:44:04.741Z,99.90
2023-03-23T22:46:33.137Z,99.90
2023-03-23T22:49:01.160Z,99.90
2023-03-23T22:51:30.760Z,99.90
2023-03-23T22:53:58.805Z,99.90
2023-03-23T22:56:26.942Z,99.90
2023-03-23T22:58:56.335Z,99.90
2023-03-23T23:01:24.821Z,99.90
2023-03-23T23:03:53.086Z,99.90
2023-03-23T23:06:22.512Z,99.90
2023-03-23T23:08:52.759Z,99.90
2023-03-23T23:11:24.070Z,99.90
2023-03-23T23:13:53.324Z,99.90
2023-03-23T23:16:24.242Z,99.90
2023-03-23T23:18:52.541Z,99.90
2023-03-23T23:21:23.901Z,99.90
2023-03-23T23:23:53.813Z,99.90
2023-03-23T23:26:21.959Z,99.90
2023-03-23T23:28:51.563Z,99.90
2023-03-23T23:31:27.110Z,99.90
2023-03-23T23:33:58.074Z,99.90
2023-03-23T23:36:30.502Z,99.90
2023-03-23T23:39:05.855Z,99.90
2023-03-23T23:41:35.086Z,99.90
2023-03-23T23:44:03.952Z,99.90
2023-03-23T23:46:32.489Z,99.90
2023-03-23T23:49:01.599Z,99.90
2023-03-23T23:51:33.899Z,99.90
2023-03-23T23:54:04.570Z,99.90
2023-03-23T23:56:32.979Z,99.90
2023-03-23T23:59:01.176Z,99.90
